Huvudsida
METAR-TAF:

METAR-TAF

Flygplatser :

Milano-Linate flygplats

Milano, Italien

latitud: 45-26N, longitud: 009-17E, höjd: 107 m

Aktuellt väderrapport

Denna rapport gjordes för 28 minuter sedan, klockan 22:20 UTC
Vind 6 kt från ost, varierande mellan nordost och sydost
Temperatur 21°C
Fuktighet 83%
Tryck 1018 hPa
Sikt 10 km eller mer

METAR: LIML 112220Z AUTO 09006KT 050V130 9999 NCD 21/18 Q1018

Tid: 00:48 (22:48 UTC)

Väderprognos

Denna rapport gjordes för 5 timmar och 48 minuter sedan, klockan 17:00 UTC
Prognos gäller från 11 kl. 18 UTC till 12 kl. 18 UTC
Vind 12 kt från ost
Sikt 10 km eller mer
Spridda moln på en höjd av 5000 ft
Temporärt
från 11 kl. 18 UTC till 11 kl. 24 UTC
Sikt: 4000 m
åska, regn

TAF: LIML 111700Z 1118/1218 10012KT 9999 SCT050 TEMPO 1118/1124 4000 TSRA

Aktuella väderrapporter och prognoser från 4000 flygplatser (METAR- och TAF-rapporter).

De tillgängliga stationerna syns som gula och röda prickar på kartan.

För musen över prickarna för att se namnen på stationerna.

Klicka sedan för att få väderrapporter och prognoser.

För att ändra kartan: Klicka på de gröna knapparna med ett svart kors på för att zooma in; den gröna knappen med ett streck på för att zooma ut; eller på de gröna pilarna för angränsande kartor.


METAR-TAF: